NCAR-RAP Real-Time Weather Data

Output produced by METARs form (23 January 2018  15:37 UTC)
found at http://weather.rap.ucar.edu/surface/
 
RJNK 231500Z 28021KT 4000 -SHSN FEW008 BKN015 BKN030 01/M04 Q1011
RJNK 231400Z 28020KT 9999 -SHSN FEW006 BKN015 BKN030 01/M04 Q1012
RJNK 231300Z 21021G38KT 1500 R24/P1800N -SHGSSN SCT006 BKN008 BKN015CB M00/M03 Q1012
RJNK 231200Z 21010KT 180V240 9999 -SHSN FEW002 SCT008 BKN015 M00/M01 Q1012
RJNK 231100Z 19014KT 9999 -SHSN FEW006 BKN015 M00/M02 Q1012 RETS
RJNK 231000Z 25015KT 0700 R24/P1800N TSSN VV003 00/M01 Q1012
RJNK 230900Z 29017KT 9999 -SHSN FEW006 SCT008 BKN015 01/M01 Q1012
RJNK 230800Z 27023G33KT 1200 R24/P1800N -SHGSSN VV004 01/M01 Q1011
RJNK 230700Z 26029G39KT 9999 FEW006 SCT020 FEW020CB BKN030 04/M05 Q1010
RJNK 230600Z 26035G47KT 2000 -SHSNRAGS FEW006 BKN020 FEW020CB BKN030 03/M03 Q1010
RJNK 230500Z 27026KT 9999 -SHGSRA FEW006 SCT008 BKN020CB 04/M01 Q1009 RERASN
RJNK 230400Z 26035G48KT 9999 -SHRA FEW006 BKN020 BKN030 06/M03 Q1007
RJNK 230300Z 26027G37KT 9999 -SHRA FEW006 BKN020 BKN030 07/00 Q1007
RJNK 230200Z 25030G41KT 9999 FEW006 SCT020 08/M03 Q1007
RJNK 230100Z 25029G40KT 9999 FEW006 SCT008 BKN020 08/M01 Q1007
RJNK 230000Z 21022G34KT 9999 FEW006 SCT008 BKN020 05/02 Q1007 RETS
RJNK 222300Z 21020G32KT 9999 -TSRA FEW008 BKN020 FEW020CB BKN030 04/02 Q1006
RJNK 222200Z 21015KT 9999 -SHRA FEW008 BKN020 BKN030 04/01 Q1006
RJNK 222100Z 22007KT 9999 -SHRA FEW008 SCT020 BKN030 05/M00 Q1006
RJNK 222000Z 19008KT 9999 -SHRA FEW008 SCT020 BKN030 04/01 Q1005
RJNK 221900Z 19011KT 9999 FEW008 SCT020 FEW020CB 04/01 Q1006
RJNK 221800Z 21009KT 9999 -SHRA FEW008 SCT020 FEW020CB BKN030 03/01 Q1007
RJNK 221700Z 20007KT 9999 FEW008 FEW020CB BKN030 02/01 Q1008
RJNK 221600Z 18005KT 9999 FEW008 BKN030 02/00 Q1008
RJNK 221500Z 18004KT 9999 FEW008 SCT020 BKN030 01/00 Q1009
RJNK 221400Z 17005KT 9999 FEW008 SCT020 BKN030 01/01 Q1009
RJNK 221300Z 19004KT 9999 FEW008 SCT020 BKN030 01/00 Q1010
RJNK 221200Z 21005KT 150V210 9999 FEW008 SCT020 BKN030 01/00 Q1010
RJNK 221100Z 21003KT 160V240 9999 -RASN FEW008 SCT020 BKN030 00/00 Q1011
RJNK 221000Z 18002KT 9999 -RASN FEW008 SCT020 BKN030 00/00 Q1011
RJNK 220900Z 15004KT 5000 -SNRA FEW002 SCT004 BKN008 00/M00 Q1011
RJNK 220800Z 14003KT 1500 R06/P1800N -SN SCT003 BKN006 BKN008 00/M00 Q1011
RJNK 220700Z 08002KT 1800 -SN SCT004 BKN006 BKN008 00/M00 Q1012
RJNK 220600Z 08003KT 050V110 5000 -SNRA BKN010 BKN030 OVC040 01/M00 Q1012
RJNK 220500Z 29002KT 9999 -RA FEW030 SCT040 BKN060 03/M01 Q1012
RJNK 220400Z 13004KT 9999 FEW030 BKN060 OVC080 03/M01 Q1013
RJNK 220300Z 12005KT 080V140 9999 FEW030 SCT060 BKN080 03/M02 Q1014
RJNK 220200Z VRB02KT 9999 FEW030 SCT050 BKN090 03/M01 Q1016
RJNK 220100Z 11003KT 070V160 9999 FEW030 SCT050 BKN090 02/M01 Q1017
RJNK 220000Z 03004KT 9999 FEW030 BKN050 BKN090 01/M01 Q1018
RJNK 212300Z 08005KT 9999 FEW030 BKN090 BKN120 01/M01 Q1019
RJNK 212200Z 07003KT 040V120 9999 FEW030 SCT090 BKN120 00/M01 Q1020
RJNK 212100Z 08002KT 9999 FEW040 SCT120 BKN180 M00/M01 Q1020
RJNK 212000Z 12003KT 9999 FEW040 BKN180 00/M01 Q1020
RJNK 211900Z VRB01KT 9999 FEW040 BKN180 01/M02 Q1019
RJNK 211800Z 14008KT 070V160 9999 FEW040 BKN180 01/M03 Q1019
RJNK 211700Z 03013KT 9999 BKN180 02/M02 Q1019
RJNK 211600Z 04013KT 9999 FEW040 01/M01 Q1020
RJNK 211500Z 03015KT 9999 FEW030 SCT040 01/M01 Q1021
RJNK 211400Z 04012KT 9999 FEW015 BKN040 02/M01 Q1022
RJNK 211300Z 04013KT 9999 FEW015 BKN040 02/M01 Q1022
RJNK 211200Z 05015KT 9999 FEW015 BKN040 02/M01 Q1022
RJNK 211100Z 05016KT 9999 -SHRA FEW008 SCT015 BKN040 03/M01 Q1022
RJNK 211000Z 05015KT 9999 -SHRA FEW008 BKN015 BKN040 03/M00 Q1022
RJNK 210900Z 05013KT 9999 -SHRA FEW008 BKN015 BKN040 03/01 Q1021
RJNK 210800Z 04013KT 9999 FEW008 BKN015 05/01 Q1020
RJNK 210700Z 02017KT 9999 FEW008 SCT015 05/02 Q1020 RETS
RJNK 210600Z 17004KT 120V230 9999 TS FEW010 SCT015 FEW015CB BKN030 06/04 Q1019 RERA
RJNK 210500Z 27010KT 9999 -SHRA FEW010 SCT015TCU BKN030 07/01 Q1018
RJNK 210400Z 22006KT 9999 -SHRA FEW010 SCT015 FEW015TCU BKN030 07/02 Q1018